sensor_id;sensor_type;location;lat;lon;timestamp;pressure;altitude;pressure_sealevel;temperature;humidity
9110;BME280;4590;51.462;6.692;2023-01-19T00:00:05;99930.28;;;3.00;67.79
9110;BME280;4590;51.462;6.692;2023-01-19T00:02:32;99918.31;;;3.11;66.78
9110;BME280;4590;51.462;6.692;2023-01-19T00:04:58;99923.22;;;2.99;67.88
9110;BME280;4590;51.462;6.692;2023-01-19T00:07:23;99935.97;;;3.09;67.05
9110;BME280;4590;51.462;6.692;2023-01-19T00:09:48;99954.44;;;3.12;66.77
9110;BME280;4590;51.462;6.692;2023-01-19T00:12:14;99947.94;;;3.13;66.93
9110;BME280;4590;51.462;6.692;2023-01-19T00:14:39;99950.66;;;3.08;67.10
9110;BME280;4590;51.462;6.692;2023-01-19T00:17:04;99947.38;;;3.06;67.27
9110;BME280;4590;51.462;6.692;2023-01-19T00:19:30;99952.00;;;3.10;66.65
9110;BME280;4590;51.462;6.692;2023-01-19T00:21:55;99950.09;;;3.11;66.80
9110;BME280;4590;51.462;6.692;2023-01-19T00:24:20;99948.75;;;3.03;67.61
9110;BME280;4590;51.462;6.692;2023-01-19T00:26:46;99949.28;;;3.05;67.34
9110;BME280;4590;51.462;6.692;2023-01-19T00:29:12;99944.66;;;3.06;67.22
9110;BME280;4590;51.462;6.692;2023-01-19T00:31:38;99949.03;;;3.07;67.61
9110;BME280;4590;51.462;6.692;2023-01-19T00:34:06;99945.75;;;3.10;67.24
9110;BME280;4590;51.462;6.692;2023-01-19T00:36:32;99957.44;;;3.10;67.27
9110;BME280;4590;51.462;6.692;2023-01-19T00:38:57;99946.56;;;3.10;67.47
9110;BME280;4590;51.462;6.692;2023-01-19T00:41:23;99950.66;;;3.03;68.24
9110;BME280;4590;51.462;6.692;2023-01-19T00:44:10;99946.03;;;3.08;67.38
9110;BME280;4590;51.462;6.692;2023-01-19T00:46:35;99952.00;;;3.10;67.92
9110;BME280;4590;51.462;6.692;2023-01-19T00:49:00;99947.13;;;3.12;67.27
9110;BME280;4590;51.462;6.692;2023-01-19T00:51:26;99948.44;;;3.15;67.13
9110;BME280;4590;51.462;6.692;2023-01-19T00:53:51;99940.06;;;3.06;67.85
9110;BME280;4590;51.462;6.692;2023-01-19T00:56:17;99950.66;;;3.08;67.85
9110;BME280;4590;51.462;6.692;2023-01-19T00:58:42;99954.44;;;3.12;67.35
9110;BME280;4590;51.462;6.692;2023-01-19T01:01:10;99958.53;;;3.14;67.09
9110;BME280;4590;51.462;6.692;2023-01-19T01:03:35;99953.91;;;3.10;67.86
9110;BME280;4590;51.462;6.692;2023-01-19T01:06:01;99950.38;;;3.09;68.00
9110;BME280;4590;51.462;6.692;2023-01-19T01:08:28;99950.91;;;3.11;67.98
9110;BME280;4590;51.462;6.692;2023-01-19T01:10:53;99961.53;;;3.13;67.55
9110;BME280;4590;51.462;6.692;2023-01-19T01:13:19;99945.72;;;3.15;67.91
9110;BME280;4590;51.462;6.692;2023-01-19T01:15:44;99949.56;;;3.14;67.55
9110;BME280;4590;51.462;6.692;2023-01-19T01:18:13;99954.13;;;3.18;67.75
9110;BME280;4590;51.462;6.692;2023-01-19T01:20:38;99952.50;;;3.17;67.43
9110;BME280;4590;51.462;6.692;2023-01-19T01:23:03;99954.13;;;3.18;67.33
9110;BME280;4590;51.462;6.692;2023-01-19T01:25:28;99960.94;;;3.21;67.68
9110;BME280;4590;51.462;6.692;2023-01-19T01:27:55;99962.56;;;3.22;67.75
9110;BME280;4590;51.462;6.692;2023-01-19T01:30:21;99960.66;;;3.17;68.04
9110;BME280;4590;51.462;6.692;2023-01-19T01:32:47;99959.03;;;3.22;67.72
9110;BME280;4590;51.462;6.692;2023-01-19T01:35:13;99971.00;;;3.21;67.82
9110;BME280;4590;51.462;6.692;2023-01-19T01:37:39;99957.13;;;3.22;67.73
9110;BME280;4590;51.462;6.692;2023-01-19T01:40:05;99964.47;;;3.22;67.85
9110;BME280;4590;51.462;6.692;2023-01-19T01:42:32;99967.72;;;3.24;67.80
9110;BME280;4590;51.462;6.692;2023-01-19T01:45:00;99965.28;;;3.22;67.66
9110;BME280;4590;51.462;6.692;2023-01-19T01:47:43;99963.66;;;3.16;68.02
9110;BME280;4590;51.462;6.692;2023-01-19T01:50:12;99959.56;;;3.24;68.10
9110;BME280;4590;51.462;6.692;2023-01-19T01:52:44;99965.28;;;3.22;67.92
9110;BME280;4590;51.462;6.692;2023-01-19T01:55:11;99959.03;;;3.22;67.99
9110;BME280;4590;51.462;6.692;2023-01-19T01:57:41;99958.22;;;3.21;68.29
9110;BME280;4590;51.462;6.692;2023-01-19T02:00:08;99950.34;;;3.20;68.15
9110;BME280;4590;51.462;6.692;2023-01-19T02:02:34;99956.31;;;3.16;69.02
9110;BME280;4590;51.462;6.692;2023-01-19T02:05:23;99965.00;;;3.24;68.24
9110;BME280;4590;51.462;6.692;2023-01-19T02:08:09;99945.44;;;3.16;68.50
9110;BME280;4590;51.462;6.692;2023-01-19T02:10:55;99943.25;;;3.18;68.19
9110;BME280;4590;51.462;6.692;2023-01-19T02:13:42;99946.25;;;3.17;68.36
9110;BME280;4590;51.462;6.692;2023-01-19T02:16:12;99944.63;;;3.21;68.24
9110;BME280;4590;51.462;6.692;2023-01-19T02:18:39;99940.28;;;3.20;68.19
9110;BME280;4590;51.462;6.692;2023-01-19T02:21:10;99939.19;;;3.21;67.88
9110;BME280;4590;51.462;6.692;2023-01-19T02:23:40;99935.66;;;3.21;68.07
9110;BME280;4590;51.462;6.692;2023-01-19T02:26:08;99943.25;;;3.24;68.16
9110;BME280;4590;51.462;6.692;2023-01-19T02:28:36;99941.34;;;3.24;68.33
9110;BME280;4590;51.462;6.692;2023-01-19T02:31:03;99937.81;;;3.24;68.65
9110;BME280;4590;51.462;6.692;2023-01-19T02:33:28;99942.72;;;3.27;68.17
9110;BME280;4590;51.462;6.692;2023-01-19T02:35:54;99936.19;;;3.28;68.12
9110;BME280;4590;51.462;6.692;2023-01-19T02:38:23;99940.53;;;3.29;68.14
9110;BME280;4590;51.462;6.692;2023-01-19T02:40:50;99940.25;;;3.30;68.17
9110;BME280;4590;51.462;6.692;2023-01-19T02:43:16;99936.19;;;3.17;69.20
9110;BME280;4590;51.462;6.692;2023-01-19T02:45:43;99946.53;;;3.26;68.23
9110;BME280;4590;51.462;6.692;2023-01-19T02:48:08;99941.34;;;3.24;67.92
9110;BME280;4590;51.462;6.692;2023-01-19T02:50:39;99944.88;;;3.25;67.77
9110;BME280;4590;51.462;6.692;2023-01-19T03:02:26;99953.09;;;3.14;68.40
9110;BME280;4590;51.462;6.692;2023-01-19T03:10:19;99949.53;;;3.19;68.67
9110;BME280;4590;51.462;6.692;2023-01-19T03:13:14;99932.41;;;3.18;68.44
9110;BME280;4590;51.462;6.692;2023-01-19T03:15:54;99939.19;;;3.21;68.53
9110;BME280;4590;51.462;6.692;2023-01-19T03:21:56;99940.53;;;3.24;67.92
9110;BME280;4590;51.462;6.692;2023-01-19T03:24:23;99945.72;;;3.25;68.06
9110;BME280;4590;51.462;6.692;2023-01-19T03:26:53;99944.88;;;3.25;68.40
9110;BME280;4590;51.462;6.692;2023-01-19T03:29:23;99943.25;;;3.29;68.07
9110;BME280;4590;51.462;6.692;2023-01-19T03:31:52;99942.72;;;3.27;68.51
9110;BME280;4590;51.462;6.692;2023-01-19T03:34:19;99947.03;;;3.33;68.46
9110;BME280;4590;51.462;6.692;2023-01-19T03:36:52;99941.59;;;3.33;68.00
9110;BME280;4590;51.462;6.692;2023-01-19T03:39:24;99945.38;;;3.32;68.52
9110;BME280;4590;51.462;6.692;2023-01-19T03:41:57;99941.84;;;3.31;68.48
9110;BME280;4590;51.462;6.692;2023-01-19T03:44:25;99946.47;;;3.36;68.34
9110;BME280;4590;51.462;6.692;2023-01-19T03:46:52;99951.34;;;3.39;68.54
9110;BME280;4590;51.462;6.692;2023-01-19T03:49:18;99942.41;;;3.33;68.75
9110;BME280;4590;51.462;6.692;2023-01-19T03:51:44;99945.38;;;3.32;68.85
9110;BME280;4590;51.462;6.692;2023-01-19T03:54:10;99944.56;;;3.31;69.10
9110;BME280;4590;51.462;6.692;2023-01-19T03:56:35;99954.13;;;3.29;68.99
9110;BME280;4590;51.462;6.692;2023-01-19T03:59:01;99939.19;;;3.26;69.21
9110;BME280;4590;51.462;6.692;2023-01-19T04:01:26;99941.91;;;3.21;69.36
9110;BME280;4590;51.462;6.692;2023-01-19T04:03:52;99944.09;;;3.19;69.37
9110;BME280;4590;51.462;6.692;2023-01-19T04:06:19;99932.16;;;3.10;69.82
9110;BME280;4590;51.462;6.692;2023-01-19T04:08:47;99936.78;;;3.09;69.88
9110;BME280;4590;51.462;6.692;2023-01-19T04:11:13;99942.22;;;3.09;69.76
9110;BME280;4590;51.462;6.692;2023-01-19T04:13:38;99940.59;;;3.08;69.64
9110;BME280;4590;51.462;6.692;2023-01-19T04:16:04;99933.53;;;3.02;70.01
9110;BME280;4590;51.462;6.692;2023-01-19T04:18:30;99943.91;;;2.95;72.14
9110;BME280;4590;51.462;6.692;2023-01-19T04:21:04;99941.44;;;2.99;70.26
9110;BME280;4590;51.462;6.692;2023-01-19T04:23:29;99940.31;;;3.00;69.93
9110;BME280;4590;51.462;6.692;2023-01-19T04:25:59;99943.91;;;2.95;70.97
9110;BME280;4590;51.462;6.692;2023-01-19T04:28:25;99942.81;;;2.96;70.04
9110;BME280;4590;51.462;6.692;2023-01-19T04:30:51;99935.19;;;2.93;70.57
9110;BME280;4590;51.462;6.692;2023-01-19T04:33:17;99944.72;;;2.96;70.30
9110;BME280;4590;51.462;6.692;2023-01-19T04:35:44;99943.91;;;2.90;70.89
9110;BME280;4590;51.462;6.692;2023-01-19T04:38:09;99939.56;;;2.89;71.12
9110;BME280;4590;51.462;6.692;2023-01-19T04:40:34;99930.59;;;2.89;71.32
9110;BME280;4590;51.462;6.692;2023-01-19T04:43:00;99952.03;;;2.90;70.68
9110;BME280;4590;51.462;6.692;2023-01-19T04:45:25;99949.88;;;2.92;70.50
9110;BME280;4590;51.462;6.692;2023-01-19T04:47:50;99952.03;;;2.95;70.26
9110;BME280;4590;51.462;6.692;2023-01-19T04:50:16;99952.03;;;2.95;70.59
9110;BME280;4590;51.462;6.692;2023-01-19T04:52:41;99952.59;;;2.97;70.14
9110;BME280;4590;51.462;6.692;2023-01-19T04:55:07;99963.47;;;2.97;70.56
9110;BME280;4590;51.462;6.692;2023-01-19T04:57:33;99961.81;;;2.96;70.58
9110;BME280;4590;51.462;6.692;2023-01-19T04:59:58;99952.31;;;2.94;71.03
9110;BME280;4590;51.462;6.692;2023-01-19T05:02:24;99959.13;;;2.91;70.85
9110;BME280;4590;51.462;6.692;2023-01-19T05:04:50;99959.66;;;2.88;70.94
9110;BME280;4590;51.462;6.692;2023-01-19T05:11:01;99968.91;;;2.77;71.12
9110;BME280;4590;51.462;6.692;2023-01-19T05:13:26;99973.28;;;2.83;70.81
9110;BME280;4590;51.462;6.692;2023-01-19T05:15:52;99973.00;;;2.79;70.78
9110;BME280;4590;51.462;6.692;2023-01-19T05:18:17;99973.81;;;2.80;70.85
9110;BME280;4590;51.462;6.692;2023-01-19T05:20:42;99973.81;;;2.75;71.11
9110;BME280;4590;51.462;6.692;2023-01-19T05:23:08;99979.25;;;2.75;70.97
9110;BME280;4590;51.462;6.692;2023-01-19T05:25:33;99976.53;;;2.70;71.01
9110;BME280;4590;51.462;6.692;2023-01-19T05:27:58;99976.28;;;2.66;71.69
9110;BME280;4590;51.462;6.692;2023-01-19T05:30:24;99982.22;;;2.68;71.46
9110;BME280;4590;51.462;6.692;2023-01-19T05:32:49;99978.19;;;2.66;71.06
9110;BME280;4590;51.462;6.692;2023-01-19T05:35:15;99979.81;;;2.67;71.11
9110;BME280;4590;51.462;6.692;2023-01-19T05:41:07;99991.75;;;2.66;71.30
9110;BME280;4590;51.462;6.692;2023-01-19T05:43:32;99994.47;;;2.66;71.27
9110;BME280;4590;51.462;6.692;2023-01-19T05:45:57;99996.63;;;2.69;71.22
9110;BME280;4590;51.462;6.692;2023-01-19T05:48:22;99985.25;;;2.67;71.56
9110;BME280;4590;51.462;6.692;2023-01-19T05:50:48;99995.00;;;2.68;71.67
9110;BME280;4590;51.462;6.692;2023-01-19T05:53:14;100000.72;;;2.66;71.70
9110;BME280;4590;51.462;6.692;2023-01-19T05:55:39;99995.00;;;2.68;71.70
9110;BME280;4590;51.462;6.692;2023-01-19T05:58:05;99991.19;;;2.69;71.08
9110;BME280;4590;51.462;6.692;2023-01-19T06:00:30;99991.19;;;2.69;71.27
9110;BME280;4590;51.462;6.692;2023-01-19T06:02:55;99984.41;;;2.71;71.20
9110;BME280;4590;51.462;6.692;2023-01-19T06:05:20;99975.19;;;2.67;71.89
9110;BME280;4590;51.462;6.692;2023-01-19T06:07:46;99986.31;;;2.71;71.50
9110;BME280;4590;51.462;6.692;2023-01-19T06:10:11;99992.81;;;2.70;71.62
9110;BME280;4590;51.462;6.692;2023-01-19T06:12:40;100000.69;;;2.71;71.56
9110;BME280;4590;51.462;6.692;2023-01-19T06:15:06;100005.84;;;2.73;71.80
9110;BME280;4590;51.462;6.692;2023-01-19T06:17:32;99995.81;;;2.73;71.55
9110;BME280;4590;51.462;6.692;2023-01-19T06:19:57;100005.59;;;2.74;72.05
9110;BME280;4590;51.462;6.692;2023-01-19T06:22:23;100002.59;;;2.76;71.68
9110;BME280;4590;51.462;6.692;2023-01-19T06:24:48;100014.00;;;2.78;71.48
9110;BME280;4590;51.462;6.692;2023-01-19T06:27:14;100024.88;;;2.78;71.88
9110;BME280;4590;51.462;6.692;2023-01-19T06:29:39;100028.41;;;2.78;71.76
9110;BME280;4590;51.462;6.692;2023-01-19T06:32:05;100038.19;;;2.79;72.48
9110;BME280;4590;51.462;6.692;2023-01-19T06:34:30;100038.19;;;2.79;71.87
9110;BME280;4590;51.462;6.692;2023-01-19T06:36:56;100027.06;;;2.81;72.30
9110;BME280;4590;51.462;6.692;2023-01-19T07:13:35;100090.63;;;2.85;72.68
9110;BME280;4590;51.462;6.692;2023-01-19T07:16:05;100088.19;;;2.89;72.43
9110;BME280;4590;51.462;6.692;2023-01-19T07:18:31;100094.69;;;2.93;72.72
9110;BME280;4590;51.462;6.692;2023-01-19T07:20:57;100102.56;;;2.89;72.53
9110;BME280;4590;51.462;6.692;2023-01-19T07:23:22;100106.38;;;2.93;72.56
9110;BME280;4590;51.462;6.692;2023-01-19T07:31:57;100117.28;;;2.98;72.39
9110;BME280;4590;51.462;6.692;2023-01-19T07:34:23;100124.31;;;2.99;72.55
9110;BME280;4590;51.462;6.692;2023-01-19T07:36:48;100119.69;;;3.00;72.43
9110;BME280;4590;51.462;6.692;2023-01-19T07:39:14;100126.22;;;3.04;72.62
9110;BME280;4590;51.462;6.692;2023-01-19T07:41:40;100120.78;;;3.04;72.33
9110;BME280;4590;51.462;6.692;2023-01-19T07:44:06;100128.66;;;3.05;72.52
9110;BME280;4590;51.462;6.692;2023-01-19T07:59:28;100154.78;;;3.11;72.40
9110;BME280;4590;51.462;6.692;2023-01-19T08:01:55;100155.31;;;3.08;73.00
9110;BME280;4590;51.462;6.692;2023-01-19T08:04:22;100153.97;;;3.11;72.36
9110;BME280;4590;51.462;6.692;2023-01-19T08:06:47;100173.53;;;3.13;72.47
9110;BME280;4590;51.462;6.692;2023-01-19T08:09:12;100167.03;;;3.14;72.99
9110;BME280;4590;51.462;6.692;2023-01-19T08:11:38;100180.59;;;3.14;72.82
9110;BME280;4590;51.462;6.692;2023-01-19T08:14:03;100181.44;;;3.14;72.75
9110;BME280;4590;51.462;6.692;2023-01-19T08:16:28;100183.56;;;3.17;72.63
9110;BME280;4590;51.462;6.692;2023-01-19T08:18:54;100191.47;;;3.19;73.31
9110;BME280;4590;51.462;6.692;2023-01-19T08:21:20;100187.41;;;3.22;72.47
9110;BME280;4590;51.462;6.692;2023-01-19T08:23:56;100189.00;;;3.17;72.98
9110;BME280;4590;51.462;6.692;2023-01-19T08:47:28;100221.38;;;3.34;73.27
9110;BME280;4590;51.462;6.692;2023-01-19T08:49:53;100221.66;;;3.38;73.01
9110;BME280;4590;51.462;6.692;2023-01-19T08:52:18;100234.72;;;3.41;72.96
9110;BME280;4590;51.462;6.692;2023-01-19T08:58:09;100245.31;;;3.47;73.29
9110;BME280;4590;51.462;6.692;2023-01-19T09:00:36;100243.97;;;3.50;72.56
9110;BME280;4590;51.462;6.692;2023-01-19T09:06:20;100259.22;;;3.56;72.71
9110;BME280;4590;51.462;6.692;2023-01-19T09:08:46;100267.09;;;3.58;72.62
9110;BME280;4590;51.462;6.692;2023-01-19T09:11:13;100256.50;;;3.56;72.41
9110;BME280;4590;51.462;6.692;2023-01-19T09:13:41;100257.03;;;3.58;72.47
9110;BME280;4590;51.462;6.692;2023-01-19T09:16:07;100264.09;;;3.59;72.84
9110;BME280;4590;51.462;6.692;2023-01-19T09:18:34;100272.81;;;3.61;72.39
9110;BME280;4590;51.462;6.692;2023-01-19T09:21:00;100275.53;;;3.61;72.67
9110;BME280;4590;51.462;6.692;2023-01-19T09:23:25;100276.88;;;3.64;72.76
9110;BME280;4590;51.462;6.692;2023-01-19T09:25:56;100271.69;;;3.62;72.73
9110;BME280;4590;51.462;6.692;2023-01-19T09:28:21;100273.06;;;3.65;72.92
9110;BME280;4590;51.462;6.692;2023-01-19T09:30:46;100281.78;;;3.67;72.80
9110;BME280;4590;51.462;6.692;2023-01-19T09:33:14;100280.69;;;3.68;72.85
9110;BME280;4590;51.462;6.692;2023-01-19T09:35:41;100278.78;;;3.68;72.74
9110;BME280;4590;51.462;6.692;2023-01-19T09:38:07;100283.16;;;3.69;73.43
9110;BME280;4590;51.462;6.692;2023-01-19T09:47:27;100301.09;;;3.65;73.44
9110;BME280;4590;51.462;6.692;2023-01-19T09:49:58;100305.19;;;3.68;73.17
9110;BME280;4590;51.462;6.692;2023-01-19T09:52:26;100301.63;;;3.67;73.30
9110;BME280;4590;51.462;6.692;2023-01-19T09:54:53;100311.72;;;3.67;73.67
9110;BME280;4590;51.462;6.692;2023-01-19T09:57:20;100317.97;;;3.67;73.31
9110;BME280;4590;51.462;6.692;2023-01-19T09:59:45;100319.06;;;3.56;75.19
9110;BME280;4590;51.462;6.692;2023-01-19T10:07:31;100327.78;;;3.73;74.23
9110;BME280;4590;51.462;6.692;2023-01-19T10:10:02;100319.88;;;3.82;73.52
9110;BME280;4590;51.462;6.692;2023-01-19T10:15:27;100314.16;;;3.83;73.85
9110;BME280;4590;51.462;6.692;2023-01-19T10:18:11;100325.88;;;3.89;74.09
9110;BME280;4590;51.462;6.692;2023-01-19T10:23:34;100326.94;;;3.98;73.86
9110;BME280;4590;51.462;6.692;2023-01-19T10:26:06;100332.94;;;4.00;73.61
9110;BME280;4590;51.462;6.692;2023-01-19T10:28:32;100332.94;;;4.00;74.10
9110;BME280;4590;51.462;6.692;2023-01-19T10:30:58;100329.16;;;4.06;73.90
9110;BME280;4590;51.462;6.692;2023-01-19T10:33:24;100321.75;;;4.12;73.80
9110;BME280;4590;51.462;6.692;2023-01-19T10:35:49;100337.28;;;4.16;74.07
9110;BME280;4590;51.462;6.692;2023-01-19T10:38:15;100334.31;;;4.23;73.90
9110;BME280;4590;51.462;6.692;2023-01-19T10:40:56;100327.19;;;4.27;74.00
9110;BME280;4590;51.462;6.692;2023-01-19T10:43:37;100330.19;;;4.31;73.98
9110;BME280;4590;51.462;6.692;2023-01-19T10:46:15;100335.91;;;4.34;74.15
9110;BME280;4590;51.462;6.692;2023-01-19T10:48:42;100333.97;;;4.45;73.50
9110;BME280;4590;51.462;6.692;2023-01-19T10:51:09;100330.44;;;4.49;74.08
9110;BME280;4590;51.462;6.692;2023-01-19T10:53:35;100338.59;;;4.54;73.75
9110;BME280;4590;51.462;6.692;2023-01-19T10:56:26;100322.81;;;4.51;73.55
9110;BME280;4590;51.462;6.692;2023-01-19T10:58:51;100333.66;;;4.56;73.28
9110;BME280;4590;51.462;6.692;2023-01-19T11:01:20;100334.47;;;4.57;73.13
9110;BME280;4590;51.462;6.692;2023-01-19T11:03:46;100336.38;;;4.62;73.03
9110;BME280;4590;51.462;6.692;2023-01-19T11:08:41;100348.66;;;4.59;72.98
9110;BME280;4590;51.462;6.692;2023-01-19T11:11:07;100344.03;;;4.59;73.16
9110;BME280;4590;51.462;6.692;2023-01-19T11:13:34;100351.66;;;4.57;73.37
9110;BME280;4590;51.462;6.692;2023-01-19T11:16:21;100346.50;;;4.46;74.05
9110;BME280;4590;51.462;6.692;2023-01-19T11:18:51;100352.78;;;4.51;72.88
9110;BME280;4590;51.462;6.692;2023-01-19T11:21:21;100355.50;;;4.51;73.12
9110;BME280;4590;51.462;6.692;2023-01-19T11:23:53;100356.31;;;4.52;73.10
9110;BME280;4590;51.462;6.692;2023-01-19T11:26:33;100360.41;;;4.49;73.11
9110;BME280;4590;51.462;6.692;2023-01-19T11:32:21;100349.19;;;4.66;73.86
9110;BME280;4590;51.462;6.692;2023-01-19T11:34:47;100349.97;;;4.77;74.05
9110;BME280;4590;51.462;6.692;2023-01-19T11:39:49;100355.69;;;4.85;73.71
9110;BME280;4590;51.462;6.692;2023-01-19T11:42:16;100352.91;;;4.90;73.51
9110;BME280;4590;51.462;6.692;2023-01-19T11:47:24;100361.91;;;4.96;73.16
9110;BME280;4590;51.462;6.692;2023-01-19T11:52:55;100358.41;;;4.85;72.36
9110;BME280;4590;51.462;6.692;2023-01-19T11:55:38;100363.31;;;4.78;72.64
9110;BME280;4590;51.462;6.692;2023-01-19T11:58:05;100359.78;;;4.83;72.69
9110;BME280;4590;51.462;6.692;2023-01-19T12:00:35;100366.88;;;4.84;73.09
9110;BME280;4590;51.462;6.692;2023-01-19T12:03:23;100356.50;;;4.81;73.07
9110;BME280;4590;51.462;6.692;2023-01-19T12:05:51;100357.81;;;4.93;72.94
9110;BME280;4590;51.462;6.692;2023-01-19T12:08:22;100363.81;;;4.96;73.25
9110;BME280;4590;51.462;6.692;2023-01-19T12:10:49;100362.44;;;4.98;73.25
9110;BME280;4590;51.462;6.692;2023-01-19T12:13:21;100359.44;;;5.00;73.25
9110;BME280;4590;51.462;6.692;2023-01-19T12:15:51;100357.78;;;5.04;72.47
9110;BME280;4590;51.462;6.692;2023-01-19T12:18:24;100359.13;;;5.06;72.64
9110;BME280;4590;51.462;6.692;2023-01-19T12:20:53;100365.41;;;5.07;72.47
9110;BME280;4590;51.462;6.692;2023-01-19T12:26:27;100359.97;;;5.02;72.46
9110;BME280;4590;51.462;6.692;2023-01-19T12:28:56;100355.34;;;5.02;72.32
9110;BME280;4590;51.462;6.692;2023-01-19T12:31:23;100352.09;;;5.00;72.52
9110;BME280;4590;51.462;6.692;2023-01-19T12:33:49;100352.34;;;4.99;72.11
9110;BME280;4590;51.462;6.692;2023-01-19T12:36:34;100353.47;;;4.92;72.50
9110;BME280;4590;51.462;6.692;2023-01-19T12:41:33;100365.16;;;4.98;72.38
9110;BME280;4590;51.462;6.692;2023-01-19T12:44:15;100355.63;;;4.96;72.37
9110;BME280;4590;51.462;6.692;2023-01-19T12:46:45;100358.34;;;5.01;72.81
9110;BME280;4590;51.462;6.692;2023-01-19T12:49:21;100360.53;;;4.99;72.47
9110;BME280;4590;51.462;6.692;2023-01-19T12:51:49;100366.25;;;5.02;72.35
9110;BME280;4590;51.462;6.692;2023-01-19T12:54:34;100364.91;;;5.00;72.44
9110;BME280;4590;51.462;6.692;2023-01-19T12:57:05;100366.22;;;5.07;72.35
9110;BME280;4590;51.462;6.692;2023-01-19T12:59:34;100366.47;;;5.11;72.03
9110;BME280;4590;51.462;6.692;2023-01-19T13:13:17;100365.66;;;5.15;72.05
9110;BME280;4590;51.462;6.692;2023-01-19T13:15:42;100362.66;;;5.17;71.72
9110;BME280;4590;51.462;6.692;2023-01-19T13:18:15;100361.84;;;5.16;71.79
9110;BME280;4590;51.462;6.692;2023-01-19T13:20:45;100361.00;;;5.16;72.30
9110;BME280;4590;51.462;6.692;2023-01-19T13:23:26;100368.91;;;5.17;72.14
9110;BME280;4590;51.462;6.692;2023-01-19T13:26:02;100359.13;;;5.11;71.33
9110;BME280;4590;51.462;6.692;2023-01-19T13:28:37;100362.91;;;5.15;71.52
9110;BME280;4590;51.462;6.692;2023-01-19T13:31:04;100370.56;;;5.18;71.77
9110;BME280;4590;51.462;6.692;2023-01-19T13:33:37;100364.84;;;5.15;71.04
9110;BME280;4590;51.462;6.692;2023-01-19T13:36:04;100370.56;;;5.18;71.46
9110;BME280;4590;51.462;6.692;2023-01-19T13:38:40;100374.59;;;5.21;71.74
9110;BME280;4590;51.462;6.692;2023-01-19T13:41:06;100369.41;;;5.24;71.67
9110;BME280;4590;51.462;6.692;2023-01-19T13:43:35;100374.31;;;5.22;71.63
9110;BME280;4590;51.462;6.692;2023-01-19T13:46:01;100381.97;;;5.25;71.60
9110;BME280;4590;51.462;6.692;2023-01-19T13:48:29;100377.59;;;5.24;71.59
9110;BME280;4590;51.462;6.692;2023-01-19T13:50:58;100382.50;;;5.22;71.24
9110;BME280;4590;51.462;6.692;2023-01-19T13:53:24;100387.72;;;5.19;71.38
9110;BME280;4590;51.462;6.692;2023-01-19T13:56:16;100388.56;;;5.09;70.41
9110;BME280;4590;51.462;6.692;2023-01-19T13:58:42;100388.84;;;5.13;71.06
9110;BME280;4590;51.462;6.692;2023-01-19T14:01:19;100385.84;;;5.04;70.38
9110;BME280;4590;51.462;6.692;2023-01-19T14:03:45;100386.94;;;5.08;71.37
9110;BME280;4590;51.462;6.692;2023-01-19T14:06:38;100389.16;;;5.01;70.73
9110;BME280;4590;51.462;6.692;2023-01-19T14:09:06;100394.56;;;5.06;71.08
9110;BME280;4590;51.462;6.692;2023-01-19T14:11:31;100402.53;;;5.03;71.00
9110;BME280;4590;51.462;6.692;2023-01-19T14:13:57;100399.50;;;5.04;71.07
9110;BME280;4590;51.462;6.692;2023-01-19T14:16:22;100413.97;;;5.00;70.88
9110;BME280;4590;51.462;6.692;2023-01-19T14:18:57;100404.72;;;4.90;71.01
9110;BME280;4590;51.462;6.692;2023-01-19T14:21:23;100408.25;;;4.96;71.03
9110;BME280;4590;51.462;6.692;2023-01-19T14:23:50;100407.72;;;4.99;71.18
9110;BME280;4590;51.462;6.692;2023-01-19T14:29:30;100411.22;;;5.05;70.74
9110;BME280;4590;51.462;6.692;2023-01-19T14:34:38;100414.47;;;5.07;71.28
9110;BME280;4590;51.462;6.692;2023-01-19T14:37:28;100412.56;;;5.07;70.65
9110;BME280;4590;51.462;6.692;2023-01-19T14:42:32;100422.09;;;5.15;70.84
9110;BME280;4590;51.462;6.692;2023-01-19T14:45:00;100420.75;;;5.17;71.08
9110;BME280;4590;51.462;6.692;2023-01-19T14:47:40;100419.38;;;5.10;70.30
9110;BME280;4590;51.462;6.692;2023-01-19T14:50:17;100425.13;;;5.08;69.95
9110;BME280;4590;51.462;6.692;2023-01-19T14:52:50;100422.94;;;5.10;70.10
9110;BME280;4590;51.462;6.692;2023-01-19T14:55:22;100429.47;;;5.04;69.81
9110;BME280;4590;51.462;6.692;2023-01-19T14:57:49;100431.97;;;5.01;69.94
9110;BME280;4590;51.462;6.692;2023-01-19T15:00:18;100437.16;;;4.97;69.56
9110;BME280;4590;51.462;6.692;2023-01-19T15:02:45;100431.69;;;4.97;70.02
9110;BME280;4590;51.462;6.692;2023-01-19T15:05:10;100437.75;;;4.84;69.25
9110;BME280;4590;51.462;6.692;2023-01-19T15:07:41;100445.88;;;4.89;69.54
9110;BME280;4590;51.462;6.692;2023-01-19T15:10:18;100440.72;;;4.87;69.77
9110;BME280;4590;51.462;6.692;2023-01-19T15:12:45;100440.44;;;4.89;70.16
9110;BME280;4590;51.462;6.692;2023-01-19T15:15:25;100449.47;;;4.84;70.03
9110;BME280;4590;51.462;6.692;2023-01-19T15:17:52;100448.09;;;4.87;69.92
9110;BME280;4590;51.462;6.692;2023-01-19T15:20:19;100443.19;;;4.84;70.12
9110;BME280;4590;51.462;6.692;2023-01-19T15:22:46;100441.56;;;4.83;69.69
9110;BME280;4590;51.462;6.692;2023-01-19T15:25:13;100441.56;;;4.83;70.08
9110;BME280;4590;51.462;6.692;2023-01-19T15:27:38;100447.81;;;4.83;69.69
9110;BME280;4590;51.462;6.692;2023-01-19T15:30:22;100453.81;;;4.75;69.33
9110;BME280;4590;51.462;6.692;2023-01-19T15:32:48;100451.91;;;4.76;69.61
9110;BME280;4590;51.462;6.692;2023-01-19T15:35:19;100457.09;;;4.72;69.21
9110;BME280;4590;51.462;6.692;2023-01-19T15:37:46;100452.75;;;4.71;69.88
9110;BME280;4590;51.462;6.692;2023-01-19T15:40:12;100462.28;;;4.69;69.62
9110;BME280;4590;51.462;6.692;2023-01-19T15:42:37;100467.47;;;4.65;69.48
9110;BME280;4590;51.462;6.692;2023-01-19T15:47:42;100467.72;;;4.64;69.56
9110;BME280;4590;51.462;6.692;2023-01-19T15:50:10;100471.00;;;4.61;69.92
9110;BME280;4590;51.462;6.692;2023-01-19T15:52:36;100474.53;;;4.61;69.73
9110;BME280;4590;51.462;6.692;2023-01-19T15:55:01;100481.63;;;4.57;69.69
9110;BME280;4590;51.462;6.692;2023-01-19T15:57:26;100485.47;;;4.56;69.79
9110;BME280;4590;51.462;6.692;2023-01-19T15:59:52;100488.19;;;4.56;70.00
9110;BME280;4590;51.462;6.692;2023-01-19T16:02:17;100496.63;;;4.54;69.58
9110;BME280;4590;51.462;6.692;2023-01-19T16:04:47;100495.25;;;4.52;69.25
9110;BME280;4590;51.462;6.692;2023-01-19T16:07:12;100505.34;;;4.51;69.23
9110;BME280;4590;51.462;6.692;2023-01-19T16:09:37;100505.63;;;4.50;69.37
9110;BME280;4590;51.462;6.692;2023-01-19T16:12:03;100502.59;;;4.46;69.31
9110;BME280;4590;51.462;6.692;2023-01-19T16:14:28;100508.84;;;4.42;69.23
9110;BME280;4590;51.462;6.692;2023-01-19T16:16:54;100507.22;;;4.41;69.33
9110;BME280;4590;51.462;6.692;2023-01-19T16:19:19;100508.34;;;4.40;69.83